Deferiet, New York
Current Conditions -  °F | °C
As of 4:58 PM on Wednesday 22 Oct 2014 (Local Time) from KGTB Reporting Station
Overcast Overcast  
Wind Chill: 41°   Ceiling: 1800
Heat Index: 47°   Visibility: 10mi
Dew Point: 40°   Wind: 14mph
Humidity: 76%   Direction: 40°NE
Pressure: 30.17"   Gusts: NA
Location:  44.04°N, 75.68°W
Report Text: KGTB 222058Z AUTO 04012KT 10SM BKN018 OVC060 08/04 A3017 RMK AO2 BKN V OVC SLP221 T00840043 58001
Loading
Personal Weather Stations






























Interactive Weather Map
Tropical Storm Tracking
New forecast layout! Learn more

10-Day Weather Forecast

Advertisements
Track Severe Weather on mobile